createdAt,value
2018-06-14T00:00:46.625Z,7.90
2018-06-14T00:03:15.678Z,8.07
2018-06-14T00:05:44.429Z,10.23
2018-06-14T00:08:13.063Z,11.03
2018-06-14T00:10:42.026Z,11.40
2018-06-14T00:13:10.743Z,11.80
2018-06-14T00:15:39.372Z,12.43
2018-06-14T00:18:08.351Z,12.33
2018-06-14T00:20:37.387Z,12.97
2018-06-14T00:23:06.122Z,14.03
2018-06-14T00:25:35.088Z,13.40
2018-06-14T00:28:03.802Z,14.70
2018-06-14T00:30:32.458Z,15.00
2018-06-14T00:33:01.408Z,16.10
2018-06-14T00:35:30.503Z,17.00
2018-06-14T00:38:05.765Z,17.17
2018-06-14T00:40:34.558Z,18.30
2018-06-14T00:43:03.557Z,18.30
2018-06-14T00:45:32.711Z,17.00
2018-06-14T00:48:01.438Z,18.30
2018-06-14T00:50:30.396Z,20.13
2018-06-14T00:52:59.451Z,21.07
2018-06-14T00:55:28.836Z,19.50
2018-06-14T00:57:57.560Z,20.10
2018-06-14T01:00:26.183Z,21.97
2018-06-14T01:02:54.840Z,20.07
2018-06-14T01:05:23.483Z,19.10
2018-06-14T01:07:52.109Z,22.60
2018-06-14T01:10:21.081Z,21.90
2018-06-14T01:12:50.148Z,23.23
2018-06-14T01:15:18.877Z,21.70
2018-06-14T01:17:47.859Z,23.63
2018-06-14T01:20:16.907Z,22.37
2018-06-14T01:22:45.951Z,24.53
2018-06-14T01:25:15.018Z,20.60
2018-06-14T01:27:44.038Z,21.77
2018-06-14T01:30:13.316Z,20.67
2018-06-14T01:32:42.367Z,19.33
2018-06-14T01:35:11.444Z,18.87
2018-06-14T01:37:45.887Z,19.73
2018-06-14T01:40:14.851Z,17.93
2018-06-14T01:42:43.896Z,19.13
2018-06-14T01:45:12.659Z,18.10
2018-06-14T01:47:41.292Z,17.43
2018-06-14T01:50:10.246Z,17.40
2018-06-14T01:52:38.982Z,17.03
2018-06-14T01:55:07.938Z,16.70
2018-06-14T01:57:37.020Z,16.47
2018-06-14T02:00:06.407Z,15.97
2018-06-14T02:02:35.623Z,16.63
2018-06-14T02:05:05.364Z,14.00
2018-06-14T02:07:34.519Z,16.23
2018-06-14T02:10:04.121Z,13.80
2018-06-14T02:12:33.219Z,11.60
2018-06-14T02:15:02.658Z,12.07
2018-06-14T02:17:31.740Z,12.13
2018-06-14T02:20:00.772Z,11.67
2018-06-14T02:22:29.827Z,11.50
2018-06-14T02:24:59.043Z,11.47
2018-06-14T02:27:27.787Z,11.80
2018-06-14T02:29:56.456Z,12.60
2018-06-14T02:32:25.411Z,12.90
2018-06-14T02:34:54.464Z,12.40
2018-06-14T02:37:23.548Z,11.60
2018-06-14T02:39:52.285Z,12.37
2018-06-14T02:42:21.251Z,12.40
2018-06-14T02:44:50.253Z,12.87
2018-06-14T02:47:18.953Z,12.27
2018-06-14T02:49:47.894Z,11.83
2018-06-14T02:52:16.945Z,12.00
2018-06-14T02:54:46.024Z,11.33
2018-06-14T02:57:15.504Z,11.37
2018-06-14T02:59:44.555Z,11.87
2018-06-14T03:02:13.304Z,10.70
2018-06-14T03:04:41.974Z,11.57
2018-06-14T03:07:10.975Z,11.77
2018-06-14T03:09:40.021Z,10.27
2018-06-14T03:12:08.763Z,11.30
2018-06-14T03:14:37.975Z,11.97
2018-06-14T03:17:07.105Z,10.70
2018-06-14T03:19:36.147Z,9.63
2018-06-14T03:22:04.913Z,9.90
2018-06-14T03:24:33.865Z,9.67
2018-06-14T03:27:02.593Z,10.40
2018-06-14T03:29:31.240Z,9.97
2018-06-14T03:31:59.931Z,10.17
2018-06-14T03:34:29.188Z,9.63
2018-06-14T03:36:58.247Z,9.93
2018-06-14T03:39:27.627Z,10.47
2018-06-14T03:41:56.469Z,9.87
2018-06-14T03:44:25.937Z,10.47
2018-06-14T03:46:54.980Z,10.47
2018-06-14T03:49:24.072Z,9.90
2018-06-14T03:51:52.828Z,8.93
2018-06-14T03:54:21.895Z,10.50
2018-06-14T03:56:50.735Z,9.60
2018-06-14T03:59:19.710Z,11.10
2018-06-14T04:01:48.784Z,9.50
2018-06-14T04:04:18.459Z,9.40
2018-06-14T04:06:47.566Z,9.43
2018-06-14T04:09:16.591Z,8.63
2018-06-14T04:11:45.311Z,9.80
2018-06-14T04:14:14.512Z,9.10
2018-06-14T04:16:43.227Z,8.50
2018-06-14T04:19:11.855Z,9.27
2018-06-14T04:21:40.804Z,9.27
2018-06-14T04:24:09.848Z,9.30
2018-06-14T04:26:38.844Z,9.00
2018-06-14T04:29:07.813Z,8.73
2018-06-14T04:31:36.522Z,9.27
2018-06-14T04:34:05.503Z,9.07
2018-06-14T04:36:34.555Z,10.03
2018-06-14T04:39:03.502Z,9.27
2018-06-14T04:41:32.441Z,10.37
2018-06-14T04:44:01.163Z,10.47
2018-06-14T04:46:29.822Z,9.70
2018-06-14T04:48:58.512Z,8.83
2018-06-14T04:51:27.462Z,9.57
2018-06-14T04:53:56.488Z,8.67
2018-06-14T04:56:25.540Z,8.33
2018-06-14T04:58:54.283Z,9.10
2018-06-14T05:01:23.234Z,7.97
2018-06-14T05:03:52.170Z,8.40
2018-06-14T05:06:21.208Z,7.63
2018-06-14T05:08:49.952Z,7.60
2018-06-14T05:11:18.581Z,7.67
2018-06-14T05:13:47.569Z,8.70
2018-06-14T05:16:16.568Z,8.93
2018-06-14T05:18:45.625Z,8.47
2018-06-14T05:21:14.357Z,8.60
2018-06-14T05:23:43.024Z,9.00
2018-06-14T05:26:11.988Z,8.53
2018-06-14T05:28:41.037Z,8.67
2018-06-14T05:31:09.756Z,9.20
2018-06-14T05:33:38.733Z,9.03
2018-06-14T05:36:07.790Z,8.90
2018-06-14T05:38:36.822Z,8.50
2018-06-14T05:41:05.544Z,8.23
2018-06-14T05:43:34.176Z,7.97
2018-06-14T05:46:03.171Z,8.60
2018-06-14T05:48:32.260Z,7.53
2018-06-14T05:51:01.306Z,7.83
2018-06-14T05:53:30.055Z,8.10
2018-06-14T05:55:58.829Z,7.30
2018-06-14T05:58:27.778Z,7.37
2018-06-14T06:00:56.505Z,6.70
2018-06-14T06:03:25.475Z,6.67
2018-06-14T06:05:54.197Z,6.40
2018-06-14T06:08:22.887Z,7.37
2018-06-14T06:10:51.517Z,7.90
2018-06-14T06:13:20.464Z,7.00
2018-06-14T06:15:49.691Z,7.77
2018-06-14T06:18:18.491Z,7.30
2018-06-14T06:20:47.478Z,7.47
2018-06-14T06:23:16.214Z,7.13
2018-06-14T06:25:44.851Z,7.07
2018-06-14T06:28:13.818Z,6.43
2018-06-14T06:30:42.540Z,7.00
2018-06-14T06:33:11.221Z,7.07
2018-06-14T06:35:39.872Z,7.97
2018-06-14T06:38:08.811Z,7.33
2018-06-14T06:40:37.523Z,7.33
2018-06-14T06:43:06.310Z,7.33
2018-06-14T06:45:34.959Z,7.60
2018-06-14T06:48:03.942Z,6.60
2018-06-14T06:50:32.923Z,7.37
2018-06-14T06:53:01.570Z,6.67
2018-06-14T06:55:30.584Z,8.97
2018-06-14T06:57:59.347Z,6.60
2018-06-14T07:00:29.199Z,6.40
2018-06-14T07:02:57.931Z,6.67
2018-06-14T07:05:26.656Z,6.13
2018-06-14T07:07:55.735Z,6.23
2018-06-14T07:10:24.358Z,6.23
2018-06-14T07:12:53.355Z,8.27
2018-06-14T07:15:22.432Z,6.97
2018-06-14T07:17:51.189Z,7.07
2018-06-14T07:20:19.849Z,6.33
2018-06-14T07:22:48.490Z,6.67
2018-06-14T07:25:17.122Z,6.47
2018-06-14T07:27:45.786Z,6.10
2018-06-14T07:30:14.596Z,7.27
2018-06-14T07:32:43.522Z,7.23
2018-06-14T07:35:12.566Z,9.47
2018-06-14T07:37:41.288Z,6.80
2018-06-14T07:40:10.500Z,6.50
2018-06-14T07:42:39.566Z,7.00
2018-06-14T07:45:08.431Z,6.37
2018-06-14T07:47:37.058Z,7.73
2018-06-14T07:50:05.727Z,7.17
2018-06-14T07:52:34.697Z,6.80
2018-06-14T07:55:03.415Z,6.60
2018-06-14T07:57:32.055Z,5.57
2018-06-14T08:00:00.715Z,6.73
2018-06-14T08:02:29.342Z,7.43
2018-06-14T08:04:57.967Z,6.40
2018-06-14T08:07:26.591Z,6.47
2018-06-14T08:09:55.539Z,6.63
2018-06-14T08:12:24.672Z,6.60
2018-06-14T08:14:53.387Z,6.80
2018-06-14T08:17:22.351Z,6.73
2018-06-14T08:19:51.402Z,6.97
2018-06-14T08:22:20.152Z,6.90
2018-06-14T08:24:48.826Z,7.13
2018-06-14T08:27:17.571Z,6.80
2018-06-14T08:29:46.206Z,8.90
2018-06-14T08:32:14.837Z,6.97
2018-06-14T08:34:43.479Z,6.90
2018-06-14T08:37:12.178Z,7.43
2018-06-14T08:39:40.822Z,7.07
2018-06-14T08:42:09.479Z,7.03
2018-06-14T08:44:38.115Z,6.80
2018-06-14T08:47:07.104Z,7.73
2018-06-14T08:49:36.143Z,7.37
2018-06-14T08:52:05.192Z,6.43
2018-06-14T08:54:34.231Z,6.30
2018-06-14T08:57:02.967Z,5.83
2018-06-14T08:59:31.948Z,5.50
2018-06-14T09:02:00.684Z,6.20
2018-06-14T09:04:29.845Z,6.27
2018-06-14T09:06:58.926Z,5.70
2018-06-14T09:09:27.619Z,5.93
2018-06-14T09:11:56.264Z,6.90
2018-06-14T09:14:24.908Z,7.47
2018-06-14T09:16:53.876Z,6.53
2018-06-14T09:19:22.606Z,7.30
2018-06-14T09:21:51.580Z,7.30
2018-06-14T09:24:20.695Z,7.13
2018-06-14T09:26:49.680Z,7.47
2018-06-14T09:29:18.789Z,7.47
2018-06-14T09:31:48.155Z,7.50
2018-06-14T09:34:16.871Z,7.03
2018-06-14T09:36:45.888Z,7.70
2018-06-14T09:39:14.843Z,8.13
2018-06-14T09:41:43.907Z,8.10
2018-06-14T09:44:12.648Z,8.10
2018-06-14T09:46:41.279Z,8.40
2018-06-14T09:49:13.837Z,9.23
2018-06-14T09:51:43.038Z,9.17
2018-06-14T09:54:11.703Z,7.07
2018-06-14T09:56:40.816Z,7.30
2018-06-14T09:59:10.143Z,8.23
2018-06-14T10:01:38.858Z,7.70
2018-06-14T10:04:07.590Z,8.23
2018-06-14T10:06:36.218Z,8.07
2018-06-14T10:09:08.313Z,9.00
2018-06-14T10:11:37.245Z,8.20
2018-06-14T10:14:05.982Z,6.60
2018-06-14T10:16:34.939Z,7.77
2018-06-14T10:19:03.808Z,7.03
2018-06-14T10:21:32.499Z,7.17
2018-06-14T10:24:01.184Z,7.77
2018-06-14T10:26:30.140Z,8.67
2018-06-14T10:28:58.894Z,8.93
2018-06-14T10:31:27.543Z,8.20
2018-06-14T10:33:56.514Z,5.63
2018-06-14T10:36:25.262Z,5.43
2018-06-14T10:38:53.908Z,4.20
2018-06-14T10:41:22.570Z,5.30
2018-06-14T10:43:51.379Z,5.80
2018-06-14T10:46:20.109Z,7.37
2018-06-14T10:48:49.108Z,6.57
2018-06-14T10:51:17.862Z,5.93
2018-06-14T10:53:46.839Z,5.30
2018-06-14T10:56:15.923Z,4.87
2018-06-14T10:58:45.300Z,5.53
2018-06-14T11:01:14.048Z,6.07
2018-06-14T11:03:43.139Z,5.50
2018-06-14T11:06:11.983Z,6.80
2018-06-14T11:08:40.599Z,6.17
2018-06-14T11:11:09.560Z,7.50
2018-06-14T11:13:38.620Z,6.30
2018-06-14T11:16:07.652Z,7.13
2018-06-14T11:18:36.709Z,7.30
2018-06-14T11:21:05.616Z,7.53
2018-06-14T11:23:34.543Z,7.40
2018-06-14T11:26:03.588Z,7.20
2018-06-14T11:28:32.636Z,8.47
2018-06-14T11:31:02.619Z,7.43
2018-06-14T11:33:31.693Z,7.70
2018-06-14T11:36:00.728Z,7.77
2018-06-14T11:38:29.430Z,7.73
2018-06-14T11:40:58.108Z,8.50
2018-06-14T11:43:26.735Z,7.47
2018-06-14T11:45:55.474Z,8.63
2018-06-14T11:48:24.191Z,8.77
2018-06-14T11:50:53.222Z,8.07
2018-06-14T11:53:21.884Z,8.20
2018-06-14T11:55:50.856Z,8.47
2018-06-14T11:58:19.606Z,9.57
2018-06-14T12:00:48.260Z,8.67
2018-06-14T12:03:16.908Z,8.47
2018-06-14T12:05:45.543Z,8.53
2018-06-14T12:08:14.403Z,9.23
2018-06-14T12:10:43.387Z,8.60
2018-06-14T12:13:13.079Z,8.53
2018-06-14T12:15:42.157Z,8.07
2018-06-14T12:18:10.879Z,8.70
2018-06-14T12:20:39.688Z,8.30
2018-06-14T12:23:09.084Z,8.90
2018-06-14T12:25:38.167Z,8.57
2018-06-14T12:28:07.159Z,8.10
2018-06-14T12:30:36.233Z,8.67
2018-06-14T12:33:05.301Z,7.60
2018-06-14T12:35:34.438Z,8.73
2018-06-14T12:38:03.655Z,7.13
2018-06-14T12:40:32.997Z,7.33
2018-06-14T12:43:01.771Z,8.20
2018-06-14T12:45:30.495Z,7.70
2018-06-14T12:47:59.160Z,7.90
2018-06-14T12:50:27.787Z,8.33
2018-06-14T12:52:56.796Z,7.27
2018-06-14T12:55:26.018Z,7.23
2018-06-14T12:57:54.903Z,7.87
2018-06-14T13:00:23.543Z,7.63
2018-06-14T13:02:52.495Z,7.47
2018-06-14T13:05:21.222Z,8.00
2018-06-14T13:07:50.215Z,8.83
2018-06-14T13:10:19.297Z,8.27
2018-06-14T13:12:48.023Z,9.20
2018-06-14T13:15:16.648Z,7.73
2018-06-14T13:17:45.603Z,8.20
2018-06-14T13:20:14.643Z,7.37
2018-06-14T13:22:43.683Z,7.03
2018-06-14T13:25:12.972Z,7.10
2018-06-14T13:27:42.227Z,7.80
2018-06-14T13:30:11.227Z,7.57
2018-06-14T13:32:40.175Z,7.63
2018-06-14T13:35:09.224Z,7.60
2018-06-14T13:37:38.345Z,6.97
2018-06-14T13:40:07.035Z,6.27
2018-06-14T13:42:35.681Z,7.93
2018-06-14T13:45:04.310Z,6.93
2018-06-14T13:47:33.294Z,6.53
2018-06-14T13:50:02.240Z,6.87
2018-06-14T13:52:30.910Z,6.57
2018-06-14T13:54:59.808Z,5.97
2018-06-14T13:57:28.889Z,5.80
2018-06-14T13:59:57.651Z,4.93
2018-06-14T14:02:26.299Z,6.00
2018-06-14T14:04:54.991Z,5.73
2018-06-14T14:07:28.077Z,6.23
2018-06-14T14:09:57.614Z,6.03
2018-06-14T14:12:26.991Z,7.10
2018-06-14T14:14:56.091Z,5.90
2018-06-14T14:17:24.990Z,5.87
2018-06-14T14:19:53.675Z,6.30
2018-06-14T14:22:22.636Z,5.43
2018-06-14T14:24:51.350Z,6.03
2018-06-14T14:27:20.421Z,5.87
2018-06-14T14:29:49.485Z,6.03
2018-06-14T14:32:18.205Z,5.93
2018-06-14T14:34:47.154Z,6.40
2018-06-14T14:37:15.897Z,6.50
2018-06-14T14:39:44.545Z,6.27
2018-06-14T14:42:13.211Z,5.90
2018-06-14T14:44:41.818Z,6.00
2018-06-14T14:47:10.772Z,6.03
2018-06-14T14:49:39.519Z,6.40
2018-06-14T14:52:08.176Z,5.90
2018-06-14T14:54:36.858Z,6.30
2018-06-14T14:57:05.510Z,6.63
2018-06-14T14:59:34.477Z,6.67
2018-06-14T15:02:03.223Z,7.13
2018-06-14T15:04:31.867Z,7.60
2018-06-14T15:07:00.810Z,6.07
2018-06-14T15:09:29.854Z,7.47
2018-06-14T15:11:58.638Z,6.57
2018-06-14T15:14:27.631Z,7.33
2018-06-14T15:16:56.367Z,6.77
2018-06-14T15:19:24.977Z,7.20
2018-06-14T15:21:53.614Z,6.20
2018-06-14T15:24:22.259Z,7.00
2018-06-14T15:26:51.221Z,7.27
2018-06-14T15:29:20.282Z,6.60
2018-06-14T15:31:49.003Z,6.63
2018-06-14T15:34:17.966Z,7.43
2018-06-14T15:36:46.713Z,7.20
2018-06-14T15:39:15.353Z,6.80
2018-06-14T15:41:44.026Z,7.17
2018-06-14T15:44:12.656Z,7.13
2018-06-14T15:46:41.284Z,7.43
2018-06-14T15:49:09.911Z,7.30
2018-06-14T15:51:38.889Z,7.90
2018-06-14T15:54:07.618Z,7.27
2018-06-14T15:56:38.159Z,6.80
2018-06-14T15:59:10.331Z,7.40
2018-06-14T16:01:39.421Z,7.47
2018-06-14T16:04:08.727Z,6.40
2018-06-14T16:06:37.584Z,7.43
2018-06-14T16:09:07.089Z,6.57
2018-06-14T16:11:35.751Z,5.87
2018-06-14T16:14:04.446Z,6.77
2018-06-14T16:16:33.442Z,6.43
2018-06-14T16:19:02.216Z,6.97
2018-06-14T16:21:31.193Z,7.20
2018-06-14T16:24:00.208Z,6.63
2018-06-14T16:26:28.964Z,6.37
2018-06-14T16:28:58.004Z,6.83
2018-06-14T16:31:26.720Z,7.43
2018-06-14T16:33:56.018Z,7.07
2018-06-14T16:36:24.753Z,6.47
2018-06-14T16:38:53.707Z,5.93
2018-06-14T16:41:22.434Z,6.00
2018-06-14T16:43:51.090Z,6.90
2018-06-14T16:46:20.051Z,6.23
2018-06-14T16:48:48.898Z,7.10
2018-06-14T16:51:17.601Z,6.53
2018-06-14T16:53:46.561Z,5.83
2018-06-14T16:56:15.310Z,5.40
2018-06-14T16:58:44.274Z,6.27
2018-06-14T17:01:13.033Z,6.00
2018-06-14T17:03:41.628Z,4.77
2018-06-14T17:06:10.269Z,5.63
2018-06-14T17:08:38.894Z,5.87
2018-06-14T17:11:07.843Z,6.00
2018-06-14T17:13:36.540Z,6.37
2018-06-14T17:16:05.231Z,5.90
2018-06-14T17:21:09.061Z,6.73
2018-06-14T17:23:37.908Z,6.10
2018-06-14T17:26:06.584Z,5.83
2018-06-14T17:28:35.186Z,6.23
2018-06-14T17:31:03.834Z,5.30
2018-06-14T17:33:32.478Z,5.20
2018-06-14T17:36:01.120Z,5.60
2018-06-14T17:38:30.577Z,5.37
2018-06-14T17:40:59.396Z,5.53
2018-06-14T17:43:28.271Z,5.93
2018-06-14T17:45:57.347Z,5.37
2018-06-14T17:48:26.159Z,5.87
2018-06-14T17:50:55.128Z,6.10
2018-06-14T17:53:24.186Z,5.67
2018-06-14T17:55:52.907Z,5.63
2018-06-14T17:58:22.157Z,5.20
2018-06-14T18:00:50.903Z,5.80
2018-06-14T18:03:19.545Z,5.90
2018-06-14T18:05:48.723Z,6.17
2018-06-14T18:08:17.804Z,5.23
2018-06-14T18:10:46.905Z,5.67
2018-06-14T18:13:15.550Z,5.63
2018-06-14T18:15:44.479Z,5.63
2018-06-14T18:18:13.964Z,5.17
2018-06-14T18:20:43.024Z,6.00
2018-06-14T18:23:11.769Z,6.13
2018-06-14T18:25:40.430Z,6.17
2018-06-14T18:28:09.072Z,4.80
2018-06-14T18:30:38.069Z,5.80
2018-06-14T18:33:06.942Z,5.40
2018-06-14T18:35:35.904Z,5.87
2018-06-14T18:38:04.905Z,6.10
2018-06-14T18:40:33.569Z,5.60
2018-06-14T18:43:02.496Z,6.23
2018-06-14T18:45:31.215Z,5.80
2018-06-14T18:47:59.924Z,6.43
2018-06-14T18:50:28.629Z,5.83
2018-06-14T18:52:57.202Z,6.20
2018-06-14T18:55:25.836Z,5.57
2018-06-14T18:57:54.475Z,5.60
2018-06-14T19:00:23.096Z,5.43
2018-06-14T19:02:51.742Z,5.87
2018-06-14T19:05:20.671Z,5.80
2018-06-14T19:07:49.766Z,5.60
2018-06-14T19:10:18.851Z,6.73
2018-06-14T19:12:47.529Z,6.77
2018-06-14T19:15:16.185Z,6.17
2018-06-14T19:17:45.140Z,5.87
2018-06-14T19:20:14.215Z,6.10
2018-06-14T19:22:42.932Z,6.10
2018-06-14T19:25:11.930Z,6.63
2018-06-14T19:27:41.140Z,6.27
2018-06-14T19:30:10.217Z,7.23
2018-06-14T19:32:39.741Z,6.87
2018-06-14T19:35:08.376Z,8.03
2018-06-14T19:37:37.022Z,6.90
2018-06-14T19:40:05.716Z,6.87
2018-06-14T19:42:34.483Z,6.07
2018-06-14T19:45:03.477Z,6.23
2018-06-14T19:47:32.223Z,6.97
2018-06-14T19:50:01.146Z,6.50
2018-06-14T19:52:30.231Z,7.03
2018-06-14T19:54:59.269Z,6.07
2018-06-14T19:57:27.993Z,5.57
2018-06-14T19:59:56.643Z,6.33
2018-06-14T20:02:25.435Z,7.70
2018-06-14T20:04:54.459Z,7.03
2018-06-14T20:07:23.875Z,6.13
2018-06-14T20:09:52.942Z,6.77
2018-06-14T20:12:21.879Z,7.30
2018-06-14T20:14:50.890Z,6.53
2018-06-14T20:17:19.623Z,7.37
2018-06-14T20:19:48.901Z,7.33
2018-06-14T20:22:17.508Z,7.20
2018-06-14T20:24:46.149Z,7.93
2018-06-14T20:27:15.517Z,7.53
2018-06-14T20:29:44.255Z,6.23
2018-06-14T20:32:12.903Z,6.30
2018-06-14T20:34:41.551Z,7.23
2018-06-14T20:37:10.761Z,7.90
2018-06-14T20:39:40.352Z,7.50
2018-06-14T20:42:09.603Z,8.20
2018-06-14T20:44:39.099Z,7.57
2018-06-14T20:47:07.853Z,9.60
2018-06-14T20:49:36.724Z,7.00
2018-06-14T20:52:05.480Z,6.73
2018-06-14T20:54:34.754Z,7.30
2018-06-14T20:57:03.841Z,9.27
2018-06-14T20:59:32.750Z,8.47
2018-06-14T21:02:01.673Z,8.83
2018-06-14T21:04:30.713Z,8.37
2018-06-14T21:06:59.771Z,8.70
2018-06-14T21:09:28.805Z,7.63
2018-06-14T21:11:57.654Z,7.37
2018-06-14T21:14:26.745Z,8.10
2018-06-14T21:16:55.781Z,6.50
2018-06-14T21:19:24.524Z,6.63
2018-06-14T21:21:53.447Z,7.43
2018-06-14T21:24:22.514Z,6.77
2018-06-14T21:26:51.244Z,7.90
2018-06-14T21:29:19.915Z,6.83
2018-06-14T21:31:48.866Z,7.20
2018-06-14T21:34:17.919Z,6.30
2018-06-14T21:36:47.025Z,6.10
2018-06-14T21:39:15.998Z,6.57
2018-06-14T21:41:44.937Z,7.17
2018-06-14T21:44:13.564Z,8.20
2018-06-14T21:46:42.522Z,7.03
2018-06-14T21:49:11.576Z,7.60
2018-06-14T21:51:40.297Z,6.17
2018-06-14T21:54:09.235Z,6.73
2018-06-14T21:56:38.300Z,7.03
2018-06-14T21:59:07.060Z,7.27
2018-06-14T22:01:35.743Z,7.37
2018-06-14T22:04:04.727Z,7.17
2018-06-14T22:06:33.761Z,7.40
2018-06-14T22:09:02.536Z,6.60
2018-06-14T22:11:31.186Z,6.80
2018-06-14T22:14:00.339Z,5.70
2018-06-14T22:16:29.399Z,6.37
2018-06-14T22:18:58.124Z,6.17
2018-06-14T22:21:26.783Z,5.57
2018-06-14T22:23:55.762Z,4.90
2018-06-14T22:26:24.798Z,5.07
2018-06-14T22:28:53.526Z,4.93
2018-06-14T22:31:22.198Z,4.33
2018-06-14T22:34:02.459Z,4.20
2018-06-14T22:36:31.528Z,5.53
2018-06-14T22:39:00.875Z,4.80
2018-06-14T22:41:29.611Z,4.37
2018-06-14T22:43:58.562Z,4.80
2018-06-14T22:46:27.591Z,4.50
2018-06-14T22:48:56.675Z,4.33
2018-06-14T22:51:28.195Z,3.97
2018-06-14T22:53:56.855Z,3.67
2018-06-14T22:56:25.499Z,4.00
2018-06-14T22:58:54.475Z,3.57
2018-06-14T23:02:01.692Z,3.50
2018-06-14T23:04:30.806Z,4.10
2018-06-14T23:06:59.519Z,3.63
2018-06-14T23:10:39.041Z,3.43
2018-06-14T23:13:09.297Z,3.57
2018-06-14T23:15:38.179Z,3.90
2018-06-14T23:18:07.247Z,3.03
2018-06-14T23:20:36.776Z,3.37
2018-06-14T23:23:06.119Z,3.17
2018-06-14T23:25:35.317Z,3.20
2018-06-14T23:28:04.291Z,3.37
2018-06-14T23:30:32.999Z,3.20
2018-06-14T23:33:01.950Z,3.20
2018-06-14T23:35:30.987Z,3.90
2018-06-14T23:38:00.033Z,3.00
2018-06-14T23:40:28.777Z,3.33
2018-06-14T23:42:57.735Z,2.63
2018-06-14T23:45:26.447Z,3.10
2018-06-14T23:47:55.404Z,2.87
2018-06-14T23:50:24.471Z,3.47
2018-06-14T23:52:53.482Z,2.90
2018-06-14T23:55:22.431Z,3.40
2018-06-14T23:57:51.479Z,3.27
